createdAt,value
2022-11-15T15:19:31.905Z,23.89
2022-11-15T15:21:37.471Z,23.30
2022-11-15T15:23:39.757Z,22.57
2022-11-15T15:25:41.850Z,22.59
2022-11-15T15:27:43.823Z,21.07
2022-11-15T15:29:45.887Z,18.52
2022-11-15T15:31:47.878Z,15.90
2022-11-15T15:33:49.833Z,14.29
2022-11-15T15:35:51.809Z,12.97
2022-11-15T15:37:53.767Z,11.47
2022-11-15T15:39:55.743Z,10.69
2022-11-15T15:41:57.691Z,9.76
2022-11-15T15:43:59.755Z,9.22
2022-11-15T15:46:01.739Z,8.83
2022-11-15T15:48:03.721Z,8.22
2022-11-15T15:50:05.808Z,8.17
2022-11-15T15:52:07.749Z,7.91
2022-11-15T15:54:09.685Z,7.64
2022-11-15T15:56:11.881Z,7.45
2022-11-15T15:58:13.824Z,7.31
2022-11-15T16:00:15.791Z,7.21
2022-11-15T16:02:17.927Z,7.13
2022-11-15T16:04:19.869Z,7.05
2022-11-15T16:06:21.839Z,6.99
2022-11-15T16:08:23.887Z,6.90
2022-11-15T16:10:25.973Z,6.77
2022-11-15T16:12:28.095Z,6.78
2022-11-15T16:14:30.210Z,6.72
2022-11-15T16:16:32.155Z,6.76
2022-11-15T16:18:34.533Z,6.67
2022-11-15T16:20:36.887Z,6.63
2022-11-15T16:22:38.870Z,6.55
2022-11-15T16:24:40.827Z,6.52
2022-11-15T16:26:43.004Z,6.44
2022-11-15T16:28:44.956Z,6.48
2022-11-15T16:30:49.020Z,6.60
2022-11-15T16:32:54.508Z,6.56
2022-11-15T16:34:56.548Z,6.62
2022-11-15T16:36:59.450Z,6.52
2022-11-15T16:39:01.602Z,6.57
2022-11-15T16:41:03.622Z,6.51
2022-11-15T16:43:05.579Z,6.44
2022-11-15T16:45:07.648Z,6.48
2022-11-15T16:47:09.606Z,6.45
2022-11-15T16:49:11.564Z,6.40
2022-11-15T16:51:13.655Z,6.41
2022-11-15T16:53:15.603Z,6.39
2022-11-15T16:55:17.554Z,6.42
2022-11-15T16:57:19.606Z,6.39
2022-11-15T16:59:21.570Z,6.36
2022-11-15T17:01:23.568Z,6.29
2022-11-15T17:03:25.820Z,6.19
2022-11-15T17:05:27.784Z,6.08
2022-11-15T17:07:30.099Z,6.17
2022-11-15T17:09:32.195Z,6.08
2022-11-15T17:11:34.154Z,5.98
2022-11-15T17:13:36.102Z,5.99
2022-11-15T17:15:38.127Z,6.10
2022-11-15T17:17:40.114Z,6.25
2022-11-15T17:19:42.058Z,6.29
2022-11-15T17:21:44.168Z,6.20
2022-11-15T17:23:46.146Z,6.30
2022-11-15T17:25:48.083Z,6.19
2022-11-15T17:27:50.218Z,6.03
2022-11-15T17:29:52.164Z,5.94
2022-11-15T17:31:54.148Z,5.99
2022-11-15T17:33:56.335Z,5.88
2022-11-15T17:35:58.400Z,5.91
2022-11-15T17:38:00.262Z,5.96
2022-11-15T17:40:02.324Z,5.90
2022-11-15T17:42:04.295Z,5.78
2022-11-15T17:44:06.330Z,5.70
2022-11-15T17:46:08.346Z,5.79
2022-11-15T17:48:10.744Z,5.85
2022-11-15T17:50:12.700Z,5.93
2022-11-15T17:52:14.770Z,5.94
2022-11-15T17:54:16.744Z,5.87
2022-11-15T17:56:18.690Z,5.85
2022-11-15T17:58:21.018Z,5.77
2022-11-15T18:00:22.954Z,5.76
2022-11-15T18:02:24.915Z,5.74
2022-11-15T18:04:26.915Z,5.77
2022-11-15T18:06:28.925Z,5.77
2022-11-15T18:08:30.894Z,5.70
2022-11-15T18:10:32.853Z,5.70
2022-11-15T18:12:34.792Z,5.71
2022-11-15T18:14:36.775Z,5.60
2022-11-15T18:16:38.857Z,5.63
2022-11-15T18:18:40.852Z,5.61
2022-11-15T18:20:42.948Z,5.58
2022-11-15T18:22:44.780Z,5.47
2022-11-15T18:24:46.728Z,5.55
2022-11-15T18:26:48.739Z,5.57
2022-11-15T18:28:50.855Z,5.57
2022-11-15T18:30:52.868Z,5.57
2022-11-15T18:32:55.034Z,5.57
2022-11-15T18:34:56.988Z,5.38
2022-11-15T18:36:58.973Z,5.29
2022-11-15T18:39:00.963Z,5.33
2022-11-15T18:41:03.071Z,5.38
2022-11-15T18:43:05.102Z,5.28
2022-11-15T18:45:07.075Z,5.34
2022-11-15T18:47:09.133Z,5.18
2022-11-15T18:49:11.141Z,5.26
2022-11-15T18:51:13.162Z,5.17
2022-11-15T18:53:15.108Z,5.13
2022-11-15T18:55:17.055Z,5.06
2022-11-15T18:57:19.011Z,5.04
2022-11-15T18:59:21.070Z,5.05
2022-11-15T19:01:23.141Z,5.12
2022-11-15T19:03:25.253Z,5.15
2022-11-15T19:05:27.248Z,5.10
2022-11-15T19:07:29.263Z,5.01
2022-11-15T19:09:31.381Z,4.97
2022-11-15T19:11:33.448Z,4.97
2022-11-15T19:13:35.567Z,4.84
2022-11-15T19:15:37.691Z,4.88
2022-11-15T19:17:39.546Z,4.78
2022-11-15T19:19:41.533Z,5.02
2022-11-15T19:21:43.488Z,4.92
2022-11-15T19:23:45.523Z,4.92
2022-11-15T19:25:47.525Z,4.89
2022-11-15T19:27:49.844Z,4.90
2022-11-15T19:29:51.774Z,5.08
2022-11-15T19:31:53.743Z,5.23
2022-11-15T19:33:55.690Z,5.09
2022-11-15T19:35:57.708Z,5.08
2022-11-15T19:37:59.738Z,5.14
2022-11-15T19:40:01.730Z,5.18
2022-11-15T19:42:03.803Z,5.11
2022-11-15T19:44:05.907Z,5.07
2022-11-15T19:46:07.855Z,5.06
2022-11-15T19:48:09.794Z,5.08
2022-11-15T19:50:11.845Z,5.02
2022-11-15T19:52:13.784Z,4.93
2022-11-15T19:54:15.818Z,4.92
2022-11-15T19:56:17.883Z,5.02
2022-11-15T19:58:19.858Z,5.08
2022-11-15T20:00:21.896Z,5.03
2022-11-15T20:02:23.867Z,4.92
2022-11-15T20:04:25.985Z,4.98
2022-11-15T20:06:28.136Z,5.00
2022-11-15T20:08:30.298Z,4.98
2022-11-15T20:10:32.425Z,4.96
2022-11-15T20:12:34.322Z,4.82
2022-11-15T20:14:36.285Z,4.84
2022-11-15T20:16:38.276Z,4.82
2022-11-15T20:18:40.325Z,4.84
2022-11-15T20:20:42.263Z,4.76
2022-11-15T20:22:44.265Z,4.76
2022-11-15T20:24:46.396Z,4.66
2022-11-15T20:26:48.389Z,4.63
2022-11-15T20:28:50.376Z,4.82
2022-11-15T20:30:52.329Z,4.86
2022-11-15T20:32:54.280Z,4.92
2022-11-15T20:34:56.231Z,4.91
2022-11-15T20:36:58.205Z,4.88
2022-11-15T20:39:00.231Z,4.86
2022-11-15T20:41:02.197Z,4.83
2022-11-15T20:43:04.328Z,4.80
2022-11-15T20:45:06.433Z,4.86
2022-11-15T20:47:08.411Z,4.84
2022-11-15T20:49:10.522Z,4.67
2022-11-15T20:51:12.514Z,4.75
2022-11-15T20:53:14.480Z,4.61
2022-11-15T20:55:16.835Z,4.60
2022-11-15T20:57:18.794Z,4.66
2022-11-15T20:59:20.767Z,4.70
2022-11-15T21:01:22.916Z,4.75
2022-11-15T21:03:24.962Z,4.71
2022-11-15T21:05:26.962Z,4.70
2022-11-15T21:07:29.139Z,4.72
2022-11-15T21:09:31.114Z,4.57
2022-11-15T21:11:33.079Z,4.65
2022-11-15T21:13:35.050Z,4.66
2022-11-15T21:15:37.009Z,4.68
2022-11-15T21:17:39.010Z,4.70
2022-11-15T21:19:41.078Z,4.95
2022-11-15T21:21:43.047Z,5.14
2022-11-15T21:23:45.004Z,5.12
2022-11-15T21:25:47.059Z,5.04
2022-11-15T21:27:49.028Z,5.16
2022-11-15T21:29:51.004Z,5.36
2022-11-15T21:31:53.066Z,5.40
2022-11-15T21:33:55.053Z,5.43
2022-11-15T21:35:56.991Z,5.34
2022-11-15T21:37:59.171Z,5.38
2022-11-15T21:40:01.181Z,5.33
2022-11-15T21:42:03.137Z,5.37
2022-11-15T21:44:05.110Z,5.19
2022-11-15T21:46:07.060Z,5.19
2022-11-15T21:48:09.010Z,4.96
2022-11-15T21:50:10.969Z,4.74
2022-11-15T21:52:12.973Z,4.81
2022-11-15T21:54:14.935Z,4.80
2022-11-15T21:56:16.970Z,4.65
2022-11-15T21:58:18.927Z,4.71
2022-11-15T22:00:20.887Z,4.71
2022-11-15T22:02:22.966Z,4.70
2022-11-15T22:04:24.949Z,4.74
2022-11-15T22:06:26.963Z,4.76
2022-11-15T22:08:29.117Z,4.66
2022-11-15T22:10:31.115Z,4.50
2022-11-15T22:12:33.055Z,4.62
2022-11-15T22:14:35.107Z,4.73
2022-11-15T22:16:37.094Z,4.70
2022-11-15T22:18:39.366Z,4.63
2022-11-15T22:20:45.378Z,4.49
2022-11-15T22:22:47.373Z,4.58
2022-11-15T22:24:49.303Z,4.57
2022-11-15T22:26:51.388Z,4.57
2022-11-15T22:28:53.333Z,4.55
2022-11-15T22:30:55.288Z,4.51
2022-11-15T22:32:57.427Z,4.57
2022-11-15T22:34:59.377Z,4.55
2022-11-15T22:39:23.357Z,4.49
2022-11-15T22:41:25.299Z,4.48
2022-11-15T22:43:27.317Z,4.44
2022-11-15T22:45:29.331Z,4.48
2022-11-15T22:47:31.272Z,4.49
2022-11-15T22:49:33.326Z,4.53
2022-11-15T22:51:35.358Z,4.56
2022-11-15T22:53:37.311Z,4.58
2022-11-15T22:55:39.282Z,4.60
2022-11-15T22:57:41.350Z,4.54
2022-11-15T22:59:43.307Z,4.49
2022-11-15T23:01:45.267Z,4.55
2022-11-15T23:03:47.340Z,4.56
2022-11-15T23:05:49.311Z,4.53
2022-11-15T23:07:51.278Z,4.47
2022-11-15T23:09:53.362Z,4.47
2022-11-15T23:11:55.311Z,4.43
2022-11-15T23:13:57.271Z,4.43
2022-11-15T23:15:59.320Z,4.41
2022-11-15T23:18:01.279Z,4.45
2022-11-15T23:20:22.134Z,4.35
2022-11-15T23:22:25.284Z,4.39
2022-11-15T23:24:27.234Z,4.28
2022-11-15T23:26:29.192Z,4.31
2022-11-15T23:28:31.571Z,4.22
2022-11-15T23:30:33.721Z,4.31
2022-11-15T23:32:35.655Z,4.41
2022-11-15T23:34:37.704Z,4.32
2022-11-15T23:36:39.671Z,4.30
2022-11-15T23:38:41.619Z,4.35
2022-11-15T23:40:43.582Z,4.40
2022-11-15T23:42:45.549Z,4.30
2022-11-15T23:44:47.479Z,4.36
2022-11-15T23:46:49.563Z,4.30
2022-11-15T23:48:51.514Z,4.32
2022-11-15T23:50:53.639Z,4.28
2022-11-15T23:52:55.650Z,4.40
2022-11-15T23:54:57.598Z,4.44
2022-11-15T23:56:59.532Z,4.43
2022-11-15T23:59:01.503Z,4.53
